Time;durP1;ratioP1;P1;durP2;ratioP2;P2;SDS_P1;SDS_P2;PMS_P1;PMS_P2;Temp;Humidity;BMP_temperature;BMP_pressure;BME280_temperature;BME280_humidity;BME280_pressure;Samples;Min_cycle;Max_cycle;Signal;HPM_P1;HPM_P2
2022/06/22 00:01:43;;;;;;;11.75;8.30;;;15.80;99.90;;;;;;5047672;28;25154;-71
2022/06/22 00:04:17;;;;;;;12.07;8.23;;;15.70;99.90;;;;;;5034838;28;25089;-72
2022/06/22 00:06:46;;;;;;;13.75;8.95;;;15.70;99.90;;;;;;5058497;28;25074;-70
2022/06/22 00:09:39;;;;;;;14.23;8.63;;;15.70;99.90;;;;;;5061830;28;25127;-68
2022/06/22 00:12:07;;;;;;;14.50;8.70;;;15.70;99.90;;;;;;5052435;28;25060;-71
2022/06/22 00:14:32;;;;;;;14.10;8.88;;;15.60;99.90;;;;;;5051983;28;25128;-71
2022/06/22 00:16:58;;;;;;;13.15;8.65;;;15.60;99.90;;;;;;5053429;28;25055;-69
2022/06/22 00:19:34;;;;;;;17.90;9.32;;;15.60;99.90;;;;;;5059378;28;25073;-72
2022/06/22 00:22:00;;;;;;;16.83;8.75;;;15.60;99.90;;;;;;5064105;28;25153;-71
2022/06/22 00:24:26;;;;;;;15.15;9.20;;;15.60;99.90;;;;;;5056892;28;25091;-73
2022/06/22 00:27:14;;;;;;;12.45;8.88;;;15.70;99.90;;;;;;5047522;28;25095;-70
2022/06/22 00:29:40;;;;;;;16.95;10.05;;;15.80;99.90;;;;;;5038484;28;25071;-71
2022/06/22 00:32:25;;;;;;;14.57;9.65;;;15.70;99.90;;;;;;5045926;28;25109;-69
2022/06/22 00:34:50;;;;;;;12.75;8.95;;;15.70;99.90;;;;;;5053447;28;25148;-69
2022/06/22 00:37:36;;;;;;;15.25;8.93;;;15.70;99.90;;;;;;5064380;28;25062;-74
2022/06/22 00:40:14;;;;;;;14.30;9.63;;;15.80;99.90;;;;;;5056270;28;25054;-72
2022/06/22 00:42:50;;;;;;;12.80;10.07;;;15.70;99.90;;;;;;5055274;28;25058;-70
2022/06/22 00:45:29;;;;;;;13.30;9.75;;;15.70;99.90;;;;;;5058246;28;25073;-70
2022/06/22 00:48:04;;;;;;;14.27;8.95;;;15.60;99.90;;;;;;5037204;28;25100;-69
2022/06/22 00:50:39;;;;;;;14.70;9.60;;;15.60;99.90;;;;;;5055247;28;25067;-73
2022/06/22 00:53:31;;;;;;;15.88;10.07;;;15.60;99.90;;;;;;5053012;28;25108;-70
2022/06/22 00:56:16;;;;;;;17.73;10.00;;;15.60;99.90;;;;;;5039380;28;25068;-73
2022/06/22 00:59:25;;;;;;;16.35;9.63;;;15.60;99.90;;;;;;5059482;28;25065;-71
2022/06/22 01:01:58;;;;;;;18.35;11.60;;;15.50;99.90;;;;;;4983147;28;25071;-71
2022/06/22 01:04:35;;;;;;;18.42;10.75;;;15.40;99.90;;;;;;4983063;28;25109;-71
2022/06/22 01:07:10;;;;;;;20.70;10.55;;;15.40;99.90;;;;;;5029758;28;25079;-69
2022/06/22 01:09:58;;;;;;;16.70;11.23;;;15.40;99.90;;;;;;5037233;28;25142;-71
2022/06/22 01:12:40;;;;;;;18.98;11.95;;;15.40;99.90;;;;;;5062988;28;25063;-71
2022/06/22 01:15:09;;;;;;;;;;;15.20;99.90;;;;;;5062233;28;25059;-70
2022/06/22 01:17:38;;;;;;;15.68;10.63;;;15.20;99.90;;;;;;5045070;28;24112;-71
2022/06/22 01:20:06;;;;;;;20.15;12.60;;;15.30;99.90;;;;;;5063983;28;25096;-71
2022/06/22 01:22:43;;;;;;;19.35;11.40;;;15.30;99.90;;;;;;5058783;28;25072;-69
2022/06/22 01:25:27;;;;;;;18.35;11.75;;;15.20;99.90;;;;;;5034732;28;25070;-71
2022/06/22 01:27:53;;;;;;;19.13;12.10;;;15.20;99.90;;;;;;5036842;28;25146;-71
2022/06/22 01:30:29;;;;;;;16.02;11.15;;;15.20;99.90;;;;;;5040566;28;25118;-72
2022/06/22 01:32:55;;;;;;;15.43;11.70;;;15.20;99.90;;;;;;5054389;28;25068;-72
2022/06/22 01:35:33;;;;;;;20.67;12.43;;;15.20;99.90;;;;;;5043457;28;25060;-70
2022/06/22 01:37:58;;;;;;;20.35;11.25;;;15.10;99.90;;;;;;5052441;28;25065;-69
2022/06/22 01:40:33;;;;;;;17.33;12.27;;;15.00;99.90;;;;;;5039831;28;25146;-71
2022/06/22 01:43:15;;;;;;;24.50;11.82;;;15.00;99.90;;;;;;5048029;28;25052;-69
2022/06/22 01:46:08;;;;;;;16.65;12.13;;;14.90;99.90;;;;;;5048091;28;25069;-70
2022/06/22 01:48:40;;;;;;;17.77;12.13;;;15.10;99.90;;;;;;5054158;28;25072;-71
2022/06/22 01:51:28;;;;;;;20.90;12.05;;;15.10;99.90;;;;;;5059060;28;25082;-74
2022/06/22 01:54:01;;;;;;;22.60;13.15;;;15.10;99.90;;;;;;5052790;28;25167;-70
2022/06/22 01:56:55;;;;;;;22.58;12.27;;;15.00;99.90;;;;;;5043557;28;25057;-72
2022/06/22 01:59:30;;;;;;;14.35;12.43;;;15.00;99.90;;;;;;5068326;28;25101;-73
2022/06/22 02:02:32;;;;;;;21.40;13.45;;;14.90;99.90;;;;;;5067031;28;25055;-72
2022/06/22 02:05:12;;;;;;;19.42;14.23;;;14.90;99.90;;;;;;5040608;28;25098;-72
2022/06/22 02:07:46;;;;;;;24.70;13.93;;;14.90;99.90;;;;;;5075208;28;25065;-70
2022/06/22 02:10:11;;;;;;;21.80;13.98;;;14.90;99.90;;;;;;5062284;28;25080;-70
2022/06/22 02:12:43;;;;;;;20.48;13.82;;;14.90;99.90;;;;;;5057545;28;25068;-72
2022/06/22 02:15:20;;;;;;;19.50;13.13;;;14.90;99.90;;;;;;5057656;28;25089;-74
2022/06/22 02:17:46;;;;;;;19.98;13.13;;;14.90;99.90;;;;;;5062824;28;25080;-72
2022/06/22 02:20:18;;;;;;;23.27;14.35;;;14.90;99.90;;;;;;5057604;28;25063;-73
2022/06/22 02:22:49;;;;;;;16.73;13.10;;;14.90;99.90;;;;;;5055830;28;25052;-68
2022/06/22 02:25:17;;;;;;;24.35;13.63;;;14.90;99.90;;;;;;5060579;28;25079;-71
2022/06/22 02:27:43;;;;;;;25.13;14.55;;;14.80;99.90;;;;;;5060141;28;25143;-69
2022/06/22 02:30:09;;;;;;;25.85;13.98;;;14.80;99.90;;;;;;5060068;28;25091;-70
2022/06/22 02:32:40;;;;;;;22.40;14.98;;;14.70;99.90;;;;;;5061792;28;25104;-70
2022/06/22 02:35:09;;;;;;;22.25;15.90;;;14.60;99.90;;;;;;5056198;28;25068;-69
2022/06/22 02:37:47;;;;;;;22.50;14.38;;;14.40;99.90;;;;;;5068561;28;25063;-71
2022/06/22 02:40:22;;;;;;;24.17;15.07;;;14.40;99.90;;;;;;5069194;28;25055;-69
2022/06/22 02:45:33;;;;;;;16.92;13.40;;;14.40;99.90;;;;;;5061802;28;25054;-71
2022/06/22 02:48:13;;;;;;;27.33;14.40;;;14.40;99.90;;;;;;5061793;28;25085;-71
2022/06/22 02:50:43;;;;;;;23.20;14.82;;;14.40;99.90;;;;;;5054208;28;25050;-71
2022/06/22 02:53:23;;;;;;;20.70;14.57;;;14.40;99.90;;;;;;5048983;28;25070;-71
2022/06/22 02:55:50;;;;;;;24.52;15.38;;;14.30;99.90;;;;;;5052713;28;25059;-70
2022/06/22 02:58:26;;;;;;;24.15;14.02;;;14.30;99.90;;;;;;5043343;28;25097;-70
2022/06/22 03:00:53;;;;;;;19.85;14.93;;;14.30;99.90;;;;;;5055918;28;25082;-69
2022/06/22 03:03:20;;;;;;;19.42;13.93;;;14.50;99.90;;;;;;5063622;28;25064;-71
2022/06/22 03:05:49;;;;;;;21.70;14.93;;;14.50;99.90;;;;;;5055896;28;25008;-71
2022/06/22 03:08:18;;;;;;;24.25;14.57;;;14.50;99.90;;;;;;5061026;28;25166;-70
2022/06/22 03:10:49;;;;;;;20.13;14.60;;;14.40;99.90;;;;;;5057019;28;25079;-70
2022/06/22 03:13:19;;;;;;;25.95;14.85;;;14.40;99.90;;;;;;5061650;28;25088;-70
2022/06/22 03:15:46;;;;;;;20.55;15.00;;;14.40;99.90;;;;;;5059066;28;25078;-70
2022/06/22 03:18:17;;;;;;;17.50;14.25;;;14.40;99.90;;;;;;5060553;28;25068;-70
2022/06/22 03:20:51;;;;;;;31.43;16.10;;;14.40;99.90;;;;;;5057124;28;25046;-72
2022/06/22 03:23:20;;;;;;;21.20;14.32;;;14.40;99.90;;;;;;5033984;28;25055;-71
2022/06/22 03:25:51;;;;;;;27.58;15.98;;;14.50;99.90;;;;;;5063077;28;25134;-71
2022/06/22 03:28:23;;;;;;;20.52;15.70;;;14.40;99.90;;;;;;5061197;28;25086;-72
2022/06/22 03:30:54;;;;;;;22.42;15.35;;;14.40;99.90;;;;;;5064538;28;25125;-72
2022/06/22 03:33:34;;;;;;;23.08;14.82;;;14.40;99.90;;;;;;5044082;28;25096;-71
2022/06/22 03:36:06;;;;;;;23.95;15.10;;;14.30;99.90;;;;;;5062678;28;25079;-71
2022/06/22 03:38:43;;;;;;;20.17;14.07;;;14.30;99.90;;;;;;5059840;28;25078;-70
2022/06/22 03:41:15;;;;;;;22.35;14.07;;;14.40;99.90;;;;;;5044507;28;25068;-70
2022/06/22 03:43:54;;;;;;;15.75;12.57;;;14.50;99.90;;;;;;5052635;28;25089;-69
2022/06/22 03:46:42;;;;;;;24.20;14.60;;;14.50;99.90;;;;;;5068421;28;25074;-72
2022/06/22 03:49:14;;;;;;;19.27;13.13;;;14.40;99.90;;;;;;5052082;28;25060;-69
2022/06/22 03:51:54;;;;;;;25.37;14.83;;;14.50;99.90;;;;;;5075320;28;25066;-69
2022/06/22 03:54:28;;;;;;;19.77;13.63;;;14.40;99.90;;;;;;5059423;28;25073;-69
2022/06/22 03:56:58;;;;;;;18.23;13.65;;;14.30;99.90;;;;;;5069822;28;25085;-69
2022/06/22 03:59:25;;;;;;;21.55;14.55;;;14.30;99.90;;;;;;5053536;28;25149;-71
2022/06/22 04:01:52;;;;;;;22.48;14.32;;;14.30;99.90;;;;;;5071745;28;25050;-70
2022/06/22 04:04:20;;;;;;;20.35;14.68;;;14.30;99.90;;;;;;5050735;28;25170;-70
2022/06/22 04:06:49;;;;;;;25.20;14.93;;;14.20;99.90;;;;;;5066660;28;25092;-69
2022/06/22 04:09:21;;;;;;;25.30;15.38;;;14.30;99.90;;;;;;5054609;28;25118;-70
2022/06/22 04:11:56;;;;;;;20.02;14.63;;;14.30;99.90;;;;;;5067013;28;25088;-69
2022/06/22 04:14:36;;;;;;;28.80;14.48;;;14.30;99.90;;;;;;5063375;28;25064;-74
2022/06/22 04:17:21;;;;;;;21.92;14.15;;;14.30;99.90;;;;;;5046557;28;25133;-70
2022/06/22 04:20:10;;;;;;;22.90;12.50;;;14.40;99.90;;;;;;5065180;28;25149;-72
2022/06/22 04:22:39;;;;;;;18.67;13.93;;;14.60;99.90;;;;;;5056111;28;25050;-71
2022/06/22 04:25:12;;;;;;;25.55;13.35;;;14.50;99.90;;;;;;5059887;28;25069;-69
2022/06/22 04:27:43;;;;;;;18.65;13.07;;;14.50;99.90;;;;;;5061768;28;25073;-71
2022/06/22 04:30:28;;;;;;;16.83;13.25;;;14.50;99.90;;;;;;5051125;28;25122;-72
2022/06/22 04:33:06;;;;;;;23.05;14.18;;;14.50;99.90;;;;;;5063753;28;25105;-71
2022/06/22 04:35:55;;;;;;;20.10;12.93;;;14.50;99.90;;;;;;5045736;28;25007;-69
2022/06/22 04:38:27;;;;;;;19.00;14.35;;;14.60;99.90;;;;;;5064779;28;25090;-68
2022/06/22 04:40:55;;;;;;;;;;;14.60;99.90;;;;;;5067217;28;25081;-72
2022/06/22 04:43:21;;;;;;;22.70;13.48;;;14.50;99.90;;;;;;5063322;28;24136;-70
2022/06/22 04:45:48;;;;;;;21.08;13.38;;;14.60;99.90;;;;;;5077728;28;25072;-70
2022/06/22 04:48:14;;;;;;;17.63;12.95;;;14.60;99.90;;;;;;5080940;28;25106;-69
2022/06/22 04:50:42;;;;;;;25.98;13.05;;;14.70;99.90;;;;;;5067498;28;25107;-70
2022/06/22 04:53:41;;;;;;;20.60;13.55;;;14.80;99.90;;;;;;5043136;28;25057;-71
2022/06/22 04:56:11;;;;;;;20.55;13.45;;;14.80;99.90;;;;;;5061359;28;25147;-72
2022/06/22 04:58:52;;;;;;;20.70;12.77;;;14.90;99.90;;;;;;5059687;28;25082;-71
2022/06/22 05:01:24;;;;;;;19.85;14.00;;;14.90;99.90;;;;;;5038046;28;25108;-72
2022/06/22 05:03:53;;;;;;;20.23;13.75;;;14.90;99.90;;;;;;5057658;28;25058;-72
2022/06/22 05:06:28;;;;;;;21.58;13.52;;;14.90;99.90;;;;;;5055142;28;25067;-71
2022/06/22 05:08:59;;;;;;;19.67;13.65;;;14.90;99.90;;;;;;5044336;28;25069;-72
2022/06/22 05:11:30;;;;;;;17.90;12.82;;;14.90;99.90;;;;;;5060971;28;25057;-73
2022/06/22 05:13:59;;;;;;;20.17;13.33;;;15.00;99.90;;;;;;5054703;28;25128;-70
2022/06/22 05:16:29;;;;;;;16.80;13.15;;;15.10;99.90;;;;;;5043014;28;25088;-72
2022/06/22 05:18:56;;;;;;;18.75;13.20;;;15.10;99.90;;;;;;5040822;28;25112;-71
2022/06/22 05:21:41;;;;;;;22.77;12.07;;;15.20;99.90;;;;;;5039805;28;24897;-71
2022/06/22 05:24:15;;;;;;;24.85;14.10;;;15.30;99.90;;;;;;5061024;28;25129;-71
2022/06/22 05:26:42;;;;;;;19.30;13.30;;;15.30;99.90;;;;;;5058168;28;25134;-70
2022/06/22 05:29:16;;;;;;;21.70;13.45;;;15.40;99.90;;;;;;5058545;28;25047;-70
2022/06/22 05:31:54;;;;;;;23.58;14.38;;;15.50;99.90;;;;;;5051338;28;25080;-68
2022/06/22 05:34:24;;;;;;;20.67;13.60;;;15.50;99.90;;;;;;5057348;28;25118;-71
2022/06/22 05:36:56;;;;;;;27.38;13.50;;;15.60;99.90;;;;;;5055822;28;25084;-71
2022/06/22 05:39:22;;;;;;;25.05;13.80;;;15.60;99.90;;;;;;5053277;28;25108;-72
2022/06/22 05:41:48;;;;;;;22.40;13.60;;;15.80;99.90;;;;;;5052553;28;25135;-68
2022/06/22 05:44:18;;;;;;;20.58;12.73;;;15.70;99.90;;;;;;5059794;28;25089;-75
2022/06/22 05:46:54;;;;;;;20.20;12.75;;;15.80;99.90;;;;;;5056236;28;25078;-70
2022/06/22 05:49:25;;;;;;;23.77;12.48;;;15.70;99.90;;;;;;5053379;28;25090;-72
2022/06/22 05:52:09;;;;;;;17.98;12.30;;;15.90;99.90;;;;;;5047277;28;25063;-71
2022/06/22 05:54:54;;;;;;;21.20;12.82;;;16.00;99.90;;;;;;5040145;28;25099;-69
2022/06/22 05:57:42;;;;;;;18.52;12.15;;;16.10;99.90;;;;;;5054025;28;25054;-70
2022/06/22 06:00:19;;;;;;;28.23;11.52;;;16.10;99.90;;;;;;5047076;28;25091;-70
2022/06/22 06:02:54;;;;;;;19.05;11.75;;;16.10;99.90;;;;;;5055504;28;25123;-72
2022/06/22 06:05:36;;;;;;;17.27;11.30;;;16.30;99.90;;;;;;5043953;28;25101;-73
2022/06/22 06:08:18;;;;;;;21.08;12.07;;;16.50;99.90;;;;;;5042488;28;25114;-74
2022/06/22 06:10:44;;;;;;;17.98;11.98;;;16.60;99.90;;;;;;5054773;28;25066;-72
2022/06/22 06:13:21;;;;;;;15.48;10.98;;;16.60;99.90;;;;;;5057983;28;25051;-73
2022/06/22 06:15:52;;;;;;;13.40;9.88;;;16.70;99.90;;;;;;5053136;28;25070;-74
2022/06/22 06:18:23;;;;;;;16.83;10.32;;;17.00;99.90;;;;;;5059739;28;25094;-72
2022/06/22 06:21:06;;;;;;;12.25;9.27;;;17.00;99.90;;;;;;5057155;28;25085;-73
2022/06/22 06:23:47;;;;;;;15.75;9.32;;;17.10;99.90;;;;;;5046492;28;25076;-72
2022/06/22 06:29:42;;;;;;;20.88;9.27;;;17.60;99.90;;;;;;5050780;28;25134;-72
2022/06/22 06:32:38;;;;;;;13.23;8.25;;;17.80;99.90;;;;;;5041491;28;25158;-70
2022/06/22 06:35:14;;;;;;;11.77;8.10;;;17.90;99.90;;;;;;5050496;28;25109;-71
2022/06/22 06:37:39;;;;;;;11.80;7.93;;;18.00;99.90;;;;;;5041741;28;25110;-75
2022/06/22 06:40:11;;;;;;;15.18;8.90;;;18.20;99.90;;;;;;5051719;28;25054;-69
2022/06/22 06:42:43;;;;;;;9.88;7.80;;;18.10;99.90;;;;;;5057071;28;25095;-73
2022/06/22 06:45:15;;;;;;;15.38;8.40;;;18.10;99.90;;;;;;5057643;28;25069;-70
2022/06/22 06:47:51;;;;;;;14.93;8.77;;;18.10;99.90;;;;;;5040033;28;25128;-70
2022/06/22 06:50:41;;;;;;;13.88;8.40;;;18.00;99.90;;;;;;5040403;28;25068;-69
2022/06/22 06:53:22;;;;;;;13.30;7.97;;;18.30;99.90;;;;;;5023817;28;25115;-71
2022/06/22 06:56:03;;;;;;;11.93;8.23;;;18.10;99.90;;;;;;5042798;28;25136;-73
2022/06/22 06:58:40;;;;;;;15.52;8.15;;;18.50;99.90;;;;;;5064140;28;25067;-71
2022/06/22 07:01:13;;;;;;;11.85;7.10;;;18.50;99.90;;;;;;5057615;28;25109;-70
2022/06/22 07:03:41;;;;;;;20.02;7.75;;;18.80;99.90;;;;;;5055368;28;25082;-71
2022/06/22 07:06:08;;;;;;;9.68;6.93;;;19.30;99.90;;;;;;5040521;28;25062;-70
2022/06/22 07:08:41;;;;;;;12.00;6.80;;;19.30;99.90;;;;;;5059357;28;25095;-69
2022/06/22 07:11:32;;;;;;;11.48;6.47;;;19.10;99.90;;;;;;5041413;28;25140;-72
2022/06/22 07:14:10;;;;;;;15.43;6.93;;;19.40;99.90;;;;;;5064809;28;25062;-70
2022/06/22 07:16:36;;;;;;;11.85;6.38;;;19.40;99.90;;;;;;5056309;28;25075;-73
2022/06/22 07:19:06;;;;;;;15.95;6.97;;;19.80;99.90;;;;;;5069171;28;25099;-70
2022/06/22 07:21:39;;;;;;;9.18;7.07;;;19.90;99.90;;;;;;5069987;28;25105;-71
2022/06/22 07:24:12;;;;;;;12.35;6.78;;;19.70;99.90;;;;;;5060152;28;25074;-71
2022/06/22 07:26:41;;;;;;;13.93;7.30;;;19.40;99.90;;;;;;5064889;28;25054;-71
2022/06/22 07:29:16;;;;;;;9.48;6.75;;;19.60;99.90;;;;;;5049561;28;25136;-71
2022/06/22 07:31:59;;;;;;;17.20;6.78;;;19.80;99.90;;;;;;5056176;28;25064;-70
2022/06/22 07:34:38;;;;;;;13.75;5.32;;;20.10;99.90;;;;;;5036686;28;25095;-72
2022/06/22 07:37:17;;;;;;;9.30;5.95;;;20.20;99.90;;;;;;5038124;28;25056;-71
2022/06/22 07:39:52;;;;;;;8.32;5.80;;;19.70;99.90;;;;;;5055294;28;25088;-71
2022/06/22 07:42:17;;;;;;;12.60;5.82;;;19.40;99.90;;;;;;5046174;28;25092;-74
2022/06/22 07:44:43;;;;;;;12.95;5.70;;;19.60;99.90;;;;;;5050435;28;25103;-71
2022/06/22 07:47:33;;;;;;;7.65;5.10;;;19.80;99.90;;;;;;5055449;28;25073;-73
2022/06/22 07:50:16;;;;;;;10.75;5.88;;;20.20;99.90;;;;;;5059535;28;25100;-72
2022/06/22 07:52:49;;;;;;;12.05;5.05;;;20.20;99.90;;;;;;5062995;28;25094;-71
2022/06/22 07:55:57;;;;;;;12.05;4.70;;;20.60;99.90;;;;;;5043579;28;25054;-71
2022/06/22 07:58:41;;;;;;;9.20;4.97;;;20.70;99.90;;;;;;5055519;28;25070;-72
2022/06/22 08:01:17;;;;;;;10.95;4.38;;;20.50;99.90;;;;;;5061070;28;25119;-69
2022/06/22 08:03:53;;;;;;;9.35;4.85;;;20.70;99.90;;;;;;5058065;28;25053;-72
2022/06/22 08:06:27;;;;;;;8.02;4.68;;;21.10;99.90;;;;;;5063874;28;25113;-72
2022/06/22 08:09:02;;;;;;;10.45;5.18;;;21.20;99.90;;;;;;5056854;28;25149;-70
2022/06/22 08:11:35;;;;;;;9.43;5.22;;;20.90;99.60;;;;;;5065724;28;25064;-69
2022/06/22 08:14:10;;;;;;;9.93;5.32;;;21.00;99.90;;;;;;5061667;28;25055;-73
2022/06/22 08:16:43;;;;;;;9.88;4.68;;;21.20;99.10;;;;;;5060220;28;25050;-71
2022/06/22 08:19:10;;;;;;;11.73;4.95;;;21.00;99.90;;;;;;5049299;28;25063;-70
2022/06/22 08:21:41;;;;;;;10.00;5.18;;;21.30;99.70;;;;;;5024406;28;25146;-69
2022/06/22 08:24:10;;;;;;;9.95;4.70;;;20.80;99.90;;;;;;5038980;28;25098;-72
2022/06/22 08:26:37;;;;;;;11.95;5.03;;;21.10;99.90;;;;;;5046486;28;25095;-71
2022/06/22 08:29:03;;;;;;;12.02;5.18;;;21.40;99.90;;;;;;5059984;28;25096;-71
2022/06/22 08:31:33;;;;;;;13.48;4.90;;;21.90;97.80;;;;;;5051948;28;25145;-72
2022/06/22 08:34:00;;;;;;;6.95;4.88;;;21.70;95.70;;;;;;5040385;28;25100;-70
2022/06/22 08:36:50;;;;;;;7.65;4.95;;;21.70;95.60;;;;;;5053640;28;25066;-72
2022/06/22 08:39:34;;;;;;;9.13;5.47;;;21.50;94.40;;;;;;5037275;28;25100;-70
2022/06/22 08:42:19;;;;;;;9.40;4.75;;;21.40;95.30;;;;;;5025620;28;25154;-73
2022/06/22 08:44:54;;;;;;;7.90;5.07;;;21.20;95.20;;;;;;5057049;28;25127;-70
2022/06/22 08:47:37;;;;;;;8.85;4.75;;;21.50;95.60;;;;;;5035166;28;25142;-70
2022/06/22 08:50:28;;;;;;;9.30;4.32;;;22.00;91.60;;;;;;5038296;28;25095;-72
2022/06/22 08:53:12;;;;;;;8.05;4.18;;;22.10;91.50;;;;;;5036039;28;25114;-72
2022/06/22 08:56:09;;;;;;;6.60;4.32;;;22.40;89.40;;;;;;5035176;28;25057;-73
2022/06/22 08:59:04;;;;;;;6.78;4.45;;;22.30;82.70;;;;;;5057003;28;25100;-72
2022/06/22 09:01:48;;;;;;;8.75;4.60;;;22.00;83.60;;;;;;5025581;28;25136;-75
2022/06/22 09:04:46;;;;;;;8.40;3.85;;;22.20;80.60;;;;;;5059547;28;25089;-74
2022/06/22 09:07:15;;;;;;;6.78;4.30;;;22.20;73.30;;;;;;5058322;28;25058;-72
2022/06/22 09:10:19;;;;;;;9.23;4.13;;;22.30;73.50;;;;;;5044194;28;25097;-73
2022/06/22 09:13:26;;;;;;;7.75;3.95;;;22.40;76.40;;;;;;5052669;28;25075;-69
2022/06/22 09:16:06;;;;;;;8.85;3.65;;;22.60;68.20;;;;;;4989656;28;25106;-70
2022/06/22 09:18:50;;;;;;;8.05;3.90;;;22.80;69.10;;;;;;5048539;28;25125;-71
2022/06/22 09:21:27;;;;;;;9.00;3.70;;;23.20;64.60;;;;;;5062200;28;25077;-71
2022/06/22 09:24:07;;;;;;;7.47;4.22;;;23.20;65.10;;;;;;5029875;28;25061;-71
2022/06/22 09:26:54;;;;;;;8.80;3.95;;;23.30;58.90;;;;;;5058617;28;25149;-72
2022/06/22 09:30:00;;;;;;;11.20;3.78;;;23.10;52.40;;;;;;5039959;28;25059;-69
2022/06/22 09:32:48;;;;;;;6.75;4.65;;;23.00;63.80;;;;;;5035137;28;25065;-69
2022/06/22 09:35:53;;;;;;;17.15;4.38;;;22.40;65.60;;;;;;5059136;28;25034;-68
2022/06/22 09:38:21;;;;;;;6.30;4.10;;;22.50;68.50;;;;;;5060362;28;25085;-69
2022/06/22 09:41:09;;;;;;;11.02;3.92;;;22.70;68.10;;;;;;5069865;28;25130;-70
2022/06/22 09:43:59;;;;;;;7.45;3.83;;;23.30;60.70;;;;;;5055716;28;25067;-72
2022/06/22 09:46:37;;;;;;;3.95;2.83;;;23.60;50.10;;;;;;5059799;28;25065;-71
2022/06/22 09:49:30;;;;;;;9.25;3.03;;;24.30;43.30;;;;;;5064823;28;25069;-72
2022/06/22 09:52:26;;;;;;;5.53;3.40;;;24.10;28.40;;;;;;5036942;28;25099;-73
2022/06/22 09:58:42;;;;;;;8.10;4.18;;;24.70;26.90;;;;;;4977278;28;25114;-70
2022/06/22 10:01:33;;;;;;;6.75;3.42;;;24.70;21.20;;;;;;5047053;28;25080;-72
2022/06/22 10:04:17;;;;;;;10.30;3.60;;;24.50;23.70;;;;;;5053305;28;25105;-73
2022/06/22 10:07:33;;;;;;;6.10;3.10;;;24.00;26.00;;;;;;5051347;28;25075;-72
2022/06/22 10:10:42;;;;;;;4.55;2.80;;;23.90;21.40;;;;;;5050019;28;25075;-70
2022/06/22 10:13:34;;;;;;;8.02;3.45;;;23.70;24.00;;;;;;4963739;28;25078;-71
2022/06/22 10:16:09;;;;;;;;;;;23.40;29.70;;;;;;5051214;28;25122;-71
2022/06/22 10:19:12;;;;;;;4.75;3.53;;;23.90;29.10;;;;;;5052904;28;25124;-70
2022/06/22 10:22:03;;;;;;;6.88;3.08;;;24.00;16.90;;;;;;5050410;28;25084;-73
2022/06/22 10:24:53;;;;;;;4.88;3.65;;;23.40;24.60;;;;;;5056371;28;25152;-71
2022/06/22 10:27:19;;;;;;;5.50;3.47;;;24.20;24.70;;;;;;5054344;28;25067;-71
2022/06/22 10:30:22;;;;;;;12.88;3.40;;;24.50;15.00;;;;;;5036695;28;25143;-72
2022/06/22 10:33:12;;;;;;;9.23;3.65;;;24.70;7.30;;;;;;5056042;28;25085;-73
2022/06/22 10:35:54;;;;;;;8.90;3.40;;;24.10;11.30;;;;;;5051893;28;25102;-72
2022/06/22 10:38:52;;;;;;;9.93;5.38;;;24.00;11.20;;;;;;5035980;28;25064;-71
2022/06/22 10:47:32;;;;;;;7.15;3.40;;;24.30;12.30;;;;;;5061944;28;25051;-72
2022/06/22 10:50:04;;;;;;;7.32;4.82;;;24.40;15.00;;;;;;5065172;28;25139;-71
2022/06/22 10:52:48;;;;;;;6.90;3.92;;;24.60;10.50;;;;;;5070783;28;25112;-71
2022/06/22 10:55:13;;;;;;;6.10;3.33;;;25.00;4.80;;;;;;5059974;28;25059;-73
2022/06/22 10:58:17;;;;;;;8.60;2.97;;;25.00;2.30;;;;;;5064744;28;25121;-69
2022/06/22 11:00:58;;;;;;;4.70;3.10;;;25.20;1.00;;;;;;5015045;28;25092;-70
2022/06/22 11:04:14;;;;;;;4.75;3.00;;;25.00;1.00;;;;;;5033826;28;25062;-70
2022/06/22 11:06:43;;;;;;;7.25;3.10;;;25.30;1.00;;;;;;5043003;28;25028;-71
2022/06/22 11:09:39;;;;;;;7.60;3.45;;;25.30;1.00;;;;;;5066219;28;25068;-70
2022/06/22 11:12:27;;;;;;;6.55;3.55;;;24.10;1.00;;;;;;5047153;28;25060;-69
2022/06/22 11:15:17;;;;;;;6.80;3.35;;;24.30;3.30;;;;;;5061773;28;25064;-71
2022/06/22 11:18:04;;;;;;;5.53;3.22;;;24.60;1.00;;;;;;5056353;28;25055;-72
2022/06/22 11:20:50;;;;;;;6.80;3.63;;;24.80;1.00;;;;;;5058563;28;25062;-70
2022/06/22 11:23:35;;;;;;;5.72;2.75;;;24.90;1.00;;;;;;5073258;28;25091;-69
2022/06/22 11:32:21;;;;;;;6.72;2.75;;;25.40;1.00;;;;;;5049004;28;25118;-70
2022/06/22 11:35:25;;;;;;;6.47;2.70;;;25.40;1.00;;;;;;5046983;28;25164;-71
2022/06/22 11:38:08;;;;;;;6.28;3.17;;;25.40;1.00;;;;;;5067018;28;25080;-77
2022/06/22 11:41:04;;;;;;;3.45;2.72;;;25.80;1.00;;;;;;5068401;28;25055;-69
2022/06/22 11:43:54;;;;;;;6.78;3.08;;;25.60;1.00;;;;;;5066202;28;25085;-69
2022/06/22 11:46:26;;;;;;;5.63;2.80;;;25.10;1.00;;;;;;5059098;28;25075;-73
2022/06/22 11:48:59;;;;;;;3.58;2.95;;;25.40;1.00;;;;;;5063639;28;25114;-75
2022/06/22 11:51:43;;;;;;;4.03;3.13;;;25.60;1.00;;;;;;5071164;28;25060;-70
2022/06/22 11:54:50;;;;;;;9.20;3.72;;;25.60;1.00;;;;;;5064664;28;25056;-70
2022/06/22 11:57:34;;;;;;;4.38;3.67;;;25.60;1.00;;;;;;5016130;28;25079;-74
2022/06/22 12:00:06;;;;;;;6.50;3.35;;;25.60;1.00;;;;;;5062478;28;25062;-68
2022/06/22 12:02:32;;;;;;;;;;;25.40;1.00;;;;;;5058719;28;25074;-74
2022/06/22 12:05:21;;;;;;;6.45;2.97;;;26.00;1.00;;;;;;5065931;28;25103;-70
2022/06/22 12:08:32;;;;;;;6.35;2.60;;;25.40;1.00;;;;;;5043191;28;25104;-70
2022/06/22 12:11:15;;;;;;;4.07;2.45;;;25.40;1.00;;;;;;5060859;28;25061;-73
2022/06/22 12:15:04;;;;;;;5.95;2.85;;;25.50;1.00;;;;;;5050906;28;25063;-77
2022/06/22 12:16:38;;;;;;;2.72;2.42;;;25.80;1.00;;;;;;5072531;28;25051;-72
2022/06/22 12:19:48;;;;;;;5.18;2.53;;;25.70;1.00;;;;;;5060584;28;25068;-72
2022/06/22 12:22:28;;;;;;;6.93;2.30;;;25.90;1.00;;;;;;5052856;28;25107;-74
2022/06/22 12:25:06;;;;;;;3.80;2.47;;;26.20;1.00;;;;;;5064593;28;25149;-72
2022/06/22 12:27:48;;;;;;;6.68;2.28;;;26.00;1.00;;;;;;5058501;28;25097;-73
2022/06/22 12:30:21;;;;;;;;;;;25.60;1.00;;;;;;5059638;28;25103;-74
2022/06/22 12:33:14;;;;;;;6.07;2.55;;;25.60;1.00;;;;;;5067516;28;25067;-70
2022/06/22 12:36:26;;;;;;;4.68;2.40;;;25.40;1.00;;;;;;5059930;28;25077;-71
2022/06/22 12:38:59;;;;;;;4.65;2.33;;;25.50;1.00;;;;;;5044656;28;25090;-72
2022/06/22 12:41:46;;;;;;;2.55;2.35;;;25.90;1.00;;;;;;5063882;28;25066;-70
2022/06/22 12:44:24;;;;;;;7.45;2.55;;;25.60;1.00;;;;;;5034107;28;25052;-72
2022/06/22 12:47:24;;;;;;;8.45;3.25;;;25.70;1.00;;;;;;5043400;28;25093;-73
2022/06/22 12:50:31;;;;;;;6.25;2.42;;;25.50;1.00;;;;;;5044808;28;25111;-70
2022/06/22 12:53:04;;;;;;;5.80;2.47;;;25.20;1.00;;;;;;5060842;28;25124;-71
2022/06/22 12:55:34;;;;;;;3.88;1.90;;;24.80;1.00;;;;;;5053691;28;25068;-73
2022/06/22 12:58:08;;;;;;;4.10;2.08;;;25.30;1.00;;;;;;5060190;28;25073;-72
2022/06/22 13:00:35;;;;;;;3.55;1.52;;;25.50;1.00;;;;;;5033005;28;25075;-72
2022/06/22 13:03:02;;;;;;;5.68;2.00;;;25.70;1.00;;;;;;5054762;28;25062;-71
2022/06/22 13:05:41;;;;;;;9.25;2.65;;;25.60;1.00;;;;;;5057242;28;20471;-61
2022/06/22 13:08:12;;;;;;;6.55;2.13;;;25.70;1.00;;;;;;5058496;28;25068;-61
2022/06/22 13:10:45;;;;;;;8.27;2.70;;;25.30;1.00;;;;;;5061382;28;25076;-62
2022/06/22 13:13:20;;;;;;;8.02;2.50;;;25.00;1.00;;;;;;5054371;28;25053;-61
2022/06/22 13:16:05;;;;;;;4.65;2.00;;;25.30;1.00;;;;;;5060347;28;25070;-61
2022/06/22 13:18:46;;;;;;;3.53;2.00;;;25.60;1.00;;;;;;5050916;22;25125;-65
2022/06/22 13:21:21;;;;;;;3.95;2.40;;;25.30;1.00;;;;;;5018864;28;25159;-67
2022/06/22 13:24:05;;;;;;;4.68;2.13;;;25.30;1.00;;;;;;5020955;28;25062;-66
2022/06/22 13:26:41;;;;;;;12.60;2.35;;;25.40;1.00;;;;;;5019903;28;25129;-65
2022/06/22 13:29:43;;;;;;;4.20;2.10;;;25.40;1.00;;;;;;5026762;28;25065;-66
2022/06/22 13:32:12;;;;;;;5.07;2.00;;;25.60;1.00;;;;;;5021858;28;25081;-65
2022/06/22 13:34:43;;;;;;;9.10;2.50;;;25.10;1.00;;;;;;5022533;28;25096;-63
2022/06/22 13:37:27;;;;;;;3.42;2.15;;;25.20;1.00;;;;;;5027124;28;25104;-64
2022/06/22 13:40:05;;;;;;;4.72;2.15;;;25.00;1.00;;;;;;5020873;28;25136;-64
2022/06/22 13:42:59;;;;;;;6.80;2.35;;;25.20;1.00;;;;;;5022339;28;25071;-65
2022/06/22 13:45:35;;;;;;;3.92;1.95;;;25.30;1.00;;;;;;5019487;28;25066;-66
2022/06/22 13:48:16;;;;;;;4.05;1.80;;;25.30;1.00;;;;;;5014028;28;25055;-66
2022/06/22 13:51:29;;;;;;;4.40;2.65;;;25.00;1.00;;;;;;5021083;28;25070;-64
2022/06/22 13:54:15;;;;;;;5.88;2.10;;;24.90;1.00;;;;;;5031376;28;25126;-64
2022/06/22 13:57:08;;;;;;;5.20;2.20;;;24.70;1.00;;;;;;5020690;28;25096;-66
2022/06/22 13:59:46;;;;;;;9.32;2.58;;;24.90;1.00;;;;;;5020483;28;25103;-65
2022/06/22 14:02:15;;;;;;;4.60;2.10;;;24.80;1.00;;;;;;5024432;28;25054;-66